createdAt,value
2017-09-13T00:02:03.580Z,11.2
2017-09-13T00:07:03.251Z,11.2
2017-09-13T00:12:03.339Z,11.2
2017-09-13T00:17:03.025Z,11.2
2017-09-13T00:22:03.307Z,11.1
2017-09-13T00:27:03.212Z,11.1
2017-09-13T00:32:02.904Z,11.1
2017-09-13T00:37:03.304Z,11.1
2017-09-13T00:42:02.910Z,11.1
2017-09-13T00:47:02.847Z,11.0
2017-09-13T00:52:03.391Z,11.0
2017-09-13T00:57:03.109Z,10.9
2017-09-13T01:02:03.186Z,11.0
2017-09-13T01:07:03.154Z,10.8
2017-09-13T01:12:02.958Z,10.8
2017-09-13T01:17:02.991Z,10.8
2017-09-13T01:22:02.962Z,10.7
2017-09-13T01:27:03.631Z,10.7
2017-09-13T01:32:03.420Z,10.7
2017-09-13T01:37:03.287Z,10.6
2017-09-13T01:42:02.969Z,10.5
2017-09-13T01:47:03.647Z,10.5
2017-09-13T01:52:02.648Z,10.5
2017-09-13T01:57:03.426Z,10.5
2017-09-13T02:02:03.185Z,10.4
2017-09-13T02:07:03.218Z,10.3
2017-09-13T02:12:03.245Z,10.4
2017-09-13T02:17:03.162Z,10.3
2017-09-13T02:22:02.846Z,10.3
2017-09-13T02:27:03.575Z,10.4
2017-09-13T02:32:03.200Z,10.3
2017-09-13T02:37:02.993Z,10.4
2017-09-13T02:42:03.197Z,10.3
2017-09-13T02:47:03.559Z,10.4
2017-09-13T02:52:02.872Z,10.4
2017-09-13T02:57:03.102Z,10.5
2017-09-13T03:02:03.437Z,10.4
2017-09-13T03:07:03.016Z,10.5
2017-09-13T03:12:03.280Z,10.5
2017-09-13T03:17:03.599Z,10.5
2017-09-13T03:22:02.943Z,10.5
2017-09-13T03:27:03.203Z,10.5
2017-09-13T03:32:03.466Z,10.6
2017-09-13T03:37:02.799Z,10.6
2017-09-13T03:42:03.033Z,10.7
2017-09-13T03:47:03.386Z,10.8
2017-09-13T03:52:02.613Z,10.7
2017-09-13T03:57:02.996Z,10.8
2017-09-13T04:02:03.236Z,10.9
2017-09-13T04:07:02.814Z,10.9
2017-09-13T04:12:03.169Z,10.9
2017-09-13T04:17:03.873Z,10.9
2017-09-13T04:22:03.004Z,10.9
2017-09-13T04:27:03.313Z,11.0
2017-09-13T04:32:16.491Z,11.0
2017-09-13T04:37:03.173Z,11.4
2017-09-13T04:42:02.690Z,12.4
2017-09-13T04:47:17.013Z,12.8
2017-09-13T04:52:02.686Z,12.8
2017-09-13T04:57:02.948Z,13.4
2017-09-13T05:02:13.315Z,13.6
2017-09-13T05:07:03.102Z,13.5
2017-09-13T05:12:02.782Z,14.0
2017-09-13T05:17:13.965Z,14.2
2017-09-13T05:22:02.735Z,14.1
2017-09-13T05:27:03.176Z,14.3
2017-09-13T05:32:17.823Z,14.4
2017-09-13T05:37:03.391Z,14.4
2017-09-13T05:42:02.859Z,14.4
2017-09-13T05:47:13.590Z,14.3
2017-09-13T05:52:02.857Z,14.2
2017-09-13T05:57:03.345Z,14.2
2017-09-13T06:02:16.348Z,14.2
2017-09-13T06:07:03.423Z,14.2
2017-09-13T06:12:02.887Z,14.3
2017-09-13T06:17:18.353Z,14.5
2017-09-13T06:22:02.910Z,14.7
2017-09-13T06:27:03.381Z,14.7
2017-09-13T06:32:13.394Z,14.5
2017-09-13T06:37:03.518Z,14.4
2017-09-13T06:42:03.014Z,14.2
2017-09-13T06:47:17.270Z,14.2
2017-09-13T06:52:03.456Z,14.3
2017-09-13T06:57:02.944Z,14.4
2017-09-13T07:02:17.690Z,14.9
2017-09-13T07:07:03.236Z,15.0
2017-09-13T07:12:02.772Z,15.0
2017-09-13T07:17:18.072Z,15.1
2017-09-13T07:22:02.691Z,15.2
2017-09-13T07:27:03.628Z,15.4
2017-09-13T07:32:17.332Z,15.6
2017-09-13T07:37:03.168Z,31.0
2017-09-13T07:42:03.464Z,15.7
2017-09-13T07:47:13.260Z,15.9
2017-09-13T07:52:02.829Z,15.9
2017-09-13T07:57:03.208Z,15.8
2017-09-13T08:02:17.503Z,15.6
2017-09-13T08:07:02.861Z,15.7
2017-09-13T08:12:03.425Z,15.6
2017-09-13T08:17:17.592Z,15.9
2017-09-13T08:22:03.179Z,16.2
2017-09-13T08:27:03.568Z,16.5
2017-09-13T08:32:13.244Z,16.7
2017-09-13T08:37:03.196Z,17.0
2017-09-13T08:42:03.626Z,17.6
2017-09-13T08:47:17.777Z,17.5
2017-09-13T08:52:02.772Z,17.6
2017-09-13T08:57:03.251Z,17.3
2017-09-13T09:02:12.867Z,17.5
2017-09-13T09:07:02.899Z,17.5
2017-09-13T09:12:03.447Z,17.5
2017-09-13T09:17:13.480Z,17.9
2017-09-13T09:22:03.414Z,17.8
2017-09-13T09:27:02.990Z,17.6
2017-09-13T09:32:17.486Z,17.5
2017-09-13T09:37:03.460Z,17.5
2017-09-13T09:42:03.012Z,17.4
2017-09-13T09:47:13.301Z,17.7
2017-09-13T09:52:03.582Z,17.8
2017-09-13T09:57:02.988Z,17.7
2017-09-13T10:02:13.738Z,18.1
2017-09-13T10:07:03.295Z,18.0
2017-09-13T10:12:02.922Z,18.7
2017-09-13T10:17:13.354Z,19.5
2017-09-13T10:22:03.339Z,19.8
2017-09-13T10:27:03.496Z,19.8
2017-09-13T10:32:13.316Z,19.8
2017-09-13T10:37:03.014Z,19.5
2017-09-13T10:42:03.348Z,19.6
2017-09-13T10:47:17.645Z,19.9
2017-09-13T10:52:03.124Z,20.4
2017-09-13T10:57:03.533Z,20.8
2017-09-13T11:02:13.449Z,21.0
2017-09-13T11:07:02.811Z,21.3
2017-09-13T11:12:03.480Z,21.3
2017-09-13T11:17:16.687Z,21.2
2017-09-13T11:22:03.536Z,21.9
2017-09-13T11:27:03.103Z,21.8
2017-09-13T11:32:13.647Z,22.2
2017-09-13T11:37:03.375Z,22.1
2017-09-13T11:42:02.811Z,22.0
2017-09-13T11:47:17.275Z,21.5
2017-09-13T11:52:02.725Z,21.5
2017-09-13T11:57:03.252Z,21.5
2017-09-13T12:02:16.891Z,21.2
2017-09-13T12:07:03.343Z,21.6
2017-09-13T12:12:02.988Z,21.6
2017-09-13T12:17:17.401Z,21.9
2017-09-13T12:22:03.165Z,22.6
2017-09-13T12:27:03.559Z,22.5
2017-09-13T12:32:13.773Z,22.0
2017-09-13T12:37:02.889Z,22.0
2017-09-13T12:42:03.408Z,21.7
2017-09-13T12:47:13.127Z,21.7
2017-09-13T12:52:02.901Z,21.6
2017-09-13T12:57:03.306Z,21.7
2017-09-13T13:02:13.416Z,21.6
2017-09-13T13:07:03.272Z,21.4
2017-09-13T13:12:02.856Z,21.5
2017-09-13T13:17:13.818Z,20.7
2017-09-13T13:22:03.163Z,20.7
2017-09-13T13:27:03.557Z,20.8
2017-09-13T13:32:17.495Z,20.8
2017-09-13T13:37:03.387Z,20.7
2017-09-13T13:42:02.887Z,20.2
2017-09-13T13:47:13.675Z,19.9
2017-09-13T13:52:02.882Z,19.7
2017-09-13T13:57:03.287Z,19.6
2017-09-13T14:02:12.978Z,19.7
2017-09-13T14:07:03.369Z,19.6
2017-09-13T14:12:02.915Z,19.7
2017-09-13T14:17:23.298Z,19.8
2017-09-13T14:22:03.328Z,19.7
2017-09-13T14:27:02.804Z,19.3
2017-09-13T14:32:17.494Z,19.1
2017-09-13T14:37:02.802Z,19.0
2017-09-13T14:42:03.370Z,19.0
2017-09-13T14:47:13.145Z,18.7
2017-09-13T14:52:02.671Z,18.6
2017-09-13T14:57:03.155Z,18.5
2017-09-13T15:02:13.947Z,18.1
2017-09-13T15:07:03.370Z,18.0
2017-09-13T15:12:02.992Z,18.0
2017-09-13T15:17:17.346Z,17.9
2017-09-13T15:22:02.939Z,18.1
2017-09-13T15:27:03.462Z,18.3
2017-09-13T15:32:13.012Z,18.2
2017-09-13T15:37:03.337Z,18.1
2017-09-13T15:42:02.856Z,18.2
2017-09-13T15:47:13.691Z,18.1
2017-09-13T15:52:02.940Z,18.2
2017-09-13T15:57:03.287Z,18.2
2017-09-13T16:02:16.261Z,18.1
2017-09-13T16:07:03.094Z,18.0
2017-09-13T16:12:03.646Z,18.0
2017-09-13T16:17:17.770Z,18.0
2017-09-13T16:22:03.456Z,17.9
2017-09-13T16:27:02.926Z,18.0
2017-09-13T16:32:17.470Z,17.9
2017-09-13T16:37:02.770Z,17.8
2017-09-13T16:42:02.936Z,17.8
2017-09-13T16:47:17.145Z,17.7
2017-09-13T16:52:02.805Z,17.8
2017-09-13T16:57:03.275Z,17.8
2017-09-13T17:02:13.007Z,17.8
2017-09-13T17:07:03.450Z,17.8
2017-09-13T17:12:03.642Z,17.9
2017-09-13T17:17:13.420Z,17.9
2017-09-13T17:22:03.553Z,17.9
2017-09-13T17:27:02.818Z,17.9
2017-09-13T17:32:17.683Z,17.9
2017-09-13T17:37:02.785Z,17.9
2017-09-13T17:42:03.153Z,17.8
2017-09-13T17:47:14.006Z,17.8
2017-09-13T17:52:03.094Z,17.8
2017-09-13T17:57:03.610Z,17.8
2017-09-13T18:02:13.657Z,17.8
2017-09-13T18:07:03.076Z,17.9
2017-09-13T18:12:03.442Z,17.9
2017-09-13T18:17:03.395Z,18.0
2017-09-13T18:22:03.289Z,18.1
2017-09-13T18:27:03.573Z,18.0
2017-09-13T18:32:02.969Z,18.0
2017-09-13T18:37:03.182Z,18.0
2017-09-13T18:42:03.415Z,18.1
2017-09-13T18:47:02.844Z,18.1
2017-09-13T18:52:03.060Z,18.1
2017-09-13T18:57:03.390Z,18.1
2017-09-13T19:02:03.037Z,18.2
2017-09-13T19:07:03.122Z,18.1
2017-09-13T19:12:02.713Z,18.2
2017-09-13T19:17:03.068Z,18.2
2017-09-13T19:22:03.380Z,18.2
2017-09-13T19:27:03.690Z,18.3
2017-09-13T19:32:02.986Z,18.3
2017-09-13T19:37:03.358Z,18.5
2017-09-13T19:42:03.630Z,18.6
2017-09-13T19:47:02.894Z,18.8
2017-09-13T19:52:03.194Z,18.9
2017-09-13T19:57:03.542Z,19.0
2017-09-13T20:02:02.884Z,19.1
2017-09-13T20:07:03.304Z,19.1
2017-09-13T20:12:02.763Z,19.1
2017-09-13T20:17:03.039Z,19.2
2017-09-13T20:22:03.321Z,19.2
2017-09-13T20:27:03.537Z,19.4
2017-09-13T20:32:02.978Z,19.4
2017-09-13T20:37:03.235Z,19.4
2017-09-13T20:42:03.480Z,19.6
2017-09-13T20:47:03.136Z,19.7
2017-09-13T20:52:03.195Z,19.8
2017-09-13T20:57:03.405Z,19.8
2017-09-13T21:02:02.832Z,19.9
2017-09-13T21:07:03.237Z,19.9
2017-09-13T21:12:02.811Z,20.0
2017-09-13T21:17:03.037Z,20.0
2017-09-13T21:22:03.468Z,20.1
2017-09-13T21:27:02.851Z,20.1
2017-09-13T21:32:03.144Z,20.2
2017-09-13T21:37:03.407Z,20.2
2017-09-13T21:42:02.710Z,20.1
2017-09-13T21:47:03.053Z,20.2
2017-09-13T21:52:03.346Z,20.1
2017-09-13T21:57:02.679Z,20.1
2017-09-13T22:02:03.196Z,20.2
2017-09-13T22:07:03.310Z,20.2
2017-09-13T22:12:02.850Z,20.3
2017-09-13T22:22:03.748Z,20.3
2017-09-13T22:27:03.372Z,20.2
2017-09-13T22:32:03.039Z,20.3
2017-09-13T22:37:03.195Z,20.4
2017-09-13T22:42:02.950Z,20.6
2017-09-13T22:47:02.942Z,20.6
2017-09-13T22:52:02.825Z,20.6
2017-09-13T22:57:02.719Z,20.7
2017-09-13T23:02:02.614Z,20.7
2017-09-13T23:07:03.570Z,20.7
2017-09-13T23:12:02.757Z,20.7
2017-09-13T23:17:03.262Z,20.7
2017-09-13T23:22:02.920Z,20.7
2017-09-13T23:27:03.008Z,20.7
2017-09-13T23:32:02.868Z,20.6
2017-09-13T23:37:03.563Z,20.6
2017-09-13T23:42:03.349Z,20.6
2017-09-13T23:47:03.115Z,20.5
2017-09-13T23:52:03.110Z,20.6
2017-09-13T23:57:02.989Z,20.5
